Belleville, Wisconsin
Current Conditions -  °F | °C
As of 6:15 AM on Saturday 25 Oct 2014 (Local Time) from KEFT Reporting Station
Haze Haze  
Wind Chill: 12°   Ceiling: Unl
Heat Index: 12°   Visibility: 3mi
Dew Point: 12°   Wind: 12mph
Humidity: 100%   Direction: 270°W
Pressure: 29.92"   Gusts: NA
Location:  42.86°N, 89.54°W
Report Text: KEFT 251115Z AUTO 27010KT 3SM BR CLR 12/12 A2992 RMK AO2
Loading
Personal Weather Stations






























Interactive Weather Map
Tropical Storm Tracking
New forecast layout! Learn more

10-Day Weather Forecast

Advertisements
Track Severe Weather on mobile